sensor_id;sensor_type;location;lat;lon;timestamp;P1;P2;P0
20157;PMS5003;10239;56.820;24.416;2023-04-27T00:00:07;5.00;2.00;1.00
20157;PMS5003;10239;56.820;24.416;2023-04-27T00:02:37;1.00;1.00;0.40
20157;PMS5003;10239;56.820;24.416;2023-04-27T00:05:05;6.00;2.60;0.60
20157;PMS5003;10239;56.820;24.416;2023-04-27T00:07:33;3.20;2.00;1.00
20157;PMS5003;10239;56.820;24.416;2023-04-27T00:10:01;5.60;4.00;1.00
20157;PMS5003;10239;56.820;24.416;2023-04-27T00:12:28;5.60;2.40;1.00
20157;PMS5003;10239;56.820;24.416;2023-04-27T00:14:56;4.60;2.40;1.00
20157;PMS5003;10239;56.820;24.416;2023-04-27T00:17:24;2.40;2.40;1.00
20157;PMS5003;10239;56.820;24.416;2023-04-27T00:19:51;6.60;3.60;1.00
20157;PMS5003;10239;56.820;24.416;2023-04-27T00:22:20;2.40;2.40;1.00
20157;PMS5003;10239;56.820;24.416;2023-04-27T00:24:48;4.80;4.00;1.00
20157;PMS5003;10239;56.820;24.416;2023-04-27T00:27:15;5.40;2.80;1.20
20157;PMS5003;10239;56.820;24.416;2023-04-27T00:29:43;4.40;2.00;1.00
20157;PMS5003;10239;56.820;24.416;2023-04-27T00:32:11;3.20;1.60;1.00
20157;PMS5003;10239;56.820;24.416;2023-04-27T00:34:39;6.00;1.60;0.80
20157;PMS5003;10239;56.820;24.416;2023-04-27T00:37:06;4.00;4.00;1.00
20157;PMS5003;10239;56.820;24.416;2023-04-27T00:39:34;6.40;3.40;1.00
20157;PMS5003;10239;56.820;24.416;2023-04-27T00:42:02;1.60;1.00;0.60
20157;PMS5003;10239;56.820;24.416;2023-04-27T00:44:29;3.80;3.80;1.00
20157;PMS5003;10239;56.820;24.416;2023-04-27T00:46:57;3.20;3.20;0.60
20157;PMS5003;10239;56.820;24.416;2023-04-27T00:49:24;6.80;6.80;2.00
20157;PMS5003;10239;56.820;24.416;2023-04-27T00:51:53;4.00;4.00;1.00
20157;PMS5003;10239;56.820;24.416;2023-04-27T00:54:22;2.00;2.00;1.00
20157;PMS5003;10239;56.820;24.416;2023-04-27T00:56:50;2.20;2.20;1.00
20157;PMS5003;10239;56.820;24.416;2023-04-27T00:59:18;3.00;2.00;1.00
20157;PMS5003;10239;56.820;24.416;2023-04-27T01:01:46;1.20;1.20;1.00
20157;PMS5003;10239;56.820;24.416;2023-04-27T01:04:15;5.00;3.60;1.00
20157;PMS5003;10239;56.820;24.416;2023-04-27T01:06:44;1.80;1.80;1.00
20157;PMS5003;10239;56.820;24.416;2023-04-27T01:09:12;5.40;3.20;1.00
20157;PMS5003;10239;56.820;24.416;2023-04-27T01:11:40;0.60;0.00;0.00
20157;PMS5003;10239;56.820;24.416;2023-04-27T01:14:08;5.00;3.20;1.00
20157;PMS5003;10239;56.820;24.416;2023-04-27T01:16:35;6.00;2.00;1.00
20157;PMS5003;10239;56.820;24.416;2023-04-27T01:19:03;2.00;2.00;1.00
20157;PMS5003;10239;56.820;24.416;2023-04-27T01:21:32;1.60;1.60;1.20
20157;PMS5003;10239;56.820;24.416;2023-04-27T01:24:00;5.40;4.20;1.00
20157;PMS5003;10239;56.820;24.416;2023-04-27T01:26:29;3.80;2.80;0.80
20157;PMS5003;10239;56.820;24.416;2023-04-27T01:28:57;3.60;2.00;1.00
20157;PMS5003;10239;56.820;24.416;2023-04-27T01:31:26;5.40;4.20;2.00
20157;PMS5003;10239;56.820;24.416;2023-04-27T01:33:53;4.40;2.00;1.00
20157;PMS5003;10239;56.820;24.416;2023-04-27T01:36:21;3.80;3.20;1.00
20157;PMS5003;10239;56.820;24.416;2023-04-27T01:38:49;5.20;2.80;1.00
20157;PMS5003;10239;56.820;24.416;2023-04-27T01:41:17;4.20;4.20;1.00
20157;PMS5003;10239;56.820;24.416;2023-04-27T01:43:44;4.20;4.20;1.00
20157;PMS5003;10239;56.820;24.416;2023-04-27T01:46:13;7.40;4.60;1.40
20157;PMS5003;10239;56.820;24.416;2023-04-27T01:48:42;5.60;4.00;1.00
20157;PMS5003;10239;56.820;24.416;2023-04-27T01:51:09;5.80;4.00;2.00
20157;PMS5003;10239;56.820;24.416;2023-04-27T01:53:37;7.00;5.00;1.00
20157;PMS5003;10239;56.820;24.416;2023-04-27T01:56:04;3.60;3.60;1.00
20157;PMS5003;10239;56.820;24.416;2023-04-27T01:58:32;2.00;1.40;1.00
20157;PMS5003;10239;56.820;24.416;2023-04-27T02:01:01;5.80;3.60;1.20
20157;PMS5003;10239;56.820;24.416;2023-04-27T02:03:29;0.20;0.20;0.00
20157;PMS5003;10239;56.820;24.416;2023-04-27T02:05:57;6.00;2.20;1.00
20157;PMS5003;10239;56.820;24.416;2023-04-27T02:08:24;2.00;2.00;1.00
20157;PMS5003;10239;56.820;24.416;2023-04-27T02:10:52;4.80;4.20;1.00
20157;PMS5003;10239;56.820;24.416;2023-04-27T02:13:22;4.00;4.00;1.80
20157;PMS5003;10239;56.820;24.416;2023-04-27T02:15:49;5.00;4.00;1.20
20157;PMS5003;10239;56.820;24.416;2023-04-27T02:18:17;6.80;4.40;1.00
20157;PMS5003;10239;56.820;24.416;2023-04-27T02:20:46;3.40;3.40;1.20
20157;PMS5003;10239;56.820;24.416;2023-04-27T02:23:13;4.00;4.00;1.40
20157;PMS5003;10239;56.820;24.416;2023-04-27T02:25:41;5.00;3.20;1.00
20157;PMS5003;10239;56.820;24.416;2023-04-27T02:28:12;4.40;4.40;0.60
20157;PMS5003;10239;56.820;24.416;2023-04-27T02:30:40;4.60;3.40;1.00
20157;PMS5003;10239;56.820;24.416;2023-04-27T02:33:08;5.00;2.80;0.00
20157;PMS5003;10239;56.820;24.416;2023-04-27T02:35:35;2.00;2.00;1.00
20157;PMS5003;10239;56.820;24.416;2023-04-27T02:38:03;4.80;2.80;1.00
20157;PMS5003;10239;56.820;24.416;2023-04-27T02:40:35;4.20;2.40;1.40
20157;PMS5003;10239;56.820;24.416;2023-04-27T02:43:05;2.40;2.40;0.00
20157;PMS5003;10239;56.820;24.416;2023-04-27T02:45:35;5.00;2.80;1.60
20157;PMS5003;10239;56.820;24.416;2023-04-27T02:48:04;3.60;3.60;1.20
20157;PMS5003;10239;56.820;24.416;2023-04-27T02:50:32;5.00;5.00;1.00
20157;PMS5003;10239;56.820;24.416;2023-04-27T02:53:00;4.00;2.00;1.00
20157;PMS5003;10239;56.820;24.416;2023-04-27T02:55:28;7.40;4.20;1.60
20157;PMS5003;10239;56.820;24.416;2023-04-27T02:57:56;2.40;2.40;1.00
20157;PMS5003;10239;56.820;24.416;2023-04-27T03:00:23;7.00;4.20;1.00
20157;PMS5003;10239;56.820;24.416;2023-04-27T03:02:51;2.60;2.00;1.00
20157;PMS5003;10239;56.820;24.416;2023-04-27T03:05:18;4.00;1.00;0.00
20157;PMS5003;10239;56.820;24.416;2023-04-27T03:07:46;5.80;4.00;1.60
20157;PMS5003;10239;56.820;24.416;2023-04-27T03:10:13;5.20;1.40;1.00
20157;PMS5003;10239;56.820;24.416;2023-04-27T03:12:41;12.00;9.80;4.00
20157;PMS5003;10239;56.820;24.416;2023-04-27T03:15:08;4.00;4.00;1.20
20157;PMS5003;10239;56.820;24.416;2023-04-27T03:17:36;9.80;4.20;1.00
20157;PMS5003;10239;56.820;24.416;2023-04-27T03:20:05;4.40;4.40;2.00
20157;PMS5003;10239;56.820;24.416;2023-04-27T03:22:35;5.40;5.20;1.40
20157;PMS5003;10239;56.820;24.416;2023-04-27T03:25:03;11.20;5.00;2.00
20157;PMS5003;10239;56.820;24.416;2023-04-27T03:27:31;4.80;4.80;1.80
20157;PMS5003;10239;56.820;24.416;2023-04-27T03:29:58;5.00;3.20;1.00
20157;PMS5003;10239;56.820;24.416;2023-04-27T03:32:25;5.40;5.40;1.00
20157;PMS5003;10239;56.820;24.416;2023-04-27T03:34:53;6.20;2.00;1.00
20157;PMS5003;10239;56.820;24.416;2023-04-27T03:37:21;5.40;4.00;1.00
20157;PMS5003;10239;56.820;24.416;2023-04-27T03:39:49;4.00;4.00;1.00
20157;PMS5003;10239;56.820;24.416;2023-04-27T03:42:17;5.60;4.40;2.00
20157;PMS5003;10239;56.820;24.416;2023-04-27T03:44:44;4.20;3.20;1.00
20157;PMS5003;10239;56.820;24.416;2023-04-27T03:47:12;7.20;1.40;0.60
20157;PMS5003;10239;56.820;24.416;2023-04-27T03:49:40;2.80;2.80;1.00
20157;PMS5003;10239;56.820;24.416;2023-04-27T03:52:08;4.20;4.20;1.60
20157;PMS5003;10239;56.820;24.416;2023-04-27T03:54:35;3.80;3.80;1.20
20157;PMS5003;10239;56.820;24.416;2023-04-27T03:57:03;2.00;2.00;1.00
20157;PMS5003;10239;56.820;24.416;2023-04-27T03:59:30;4.80;4.00;1.60
20157;PMS5003;10239;56.820;24.416;2023-04-27T04:01:58;4.80;4.40;2.40
20157;PMS5003;10239;56.820;24.416;2023-04-27T04:04:26;6.80;1.40;0.60
20157;PMS5003;10239;56.820;24.416;2023-04-27T04:06:55;0.00;0.00;0.00
20157;PMS5003;10239;56.820;24.416;2023-04-27T04:09:23;4.00;4.00;2.00
20157;PMS5003;10239;56.820;24.416;2023-04-27T04:11:53;6.80;4.80;1.40
20157;PMS5003;10239;56.820;24.416;2023-04-27T04:14:20;4.60;2.40;0.40
20157;PMS5003;10239;56.820;24.416;2023-04-27T04:16:48;3.60;3.60;2.40
20157;PMS5003;10239;56.820;24.416;2023-04-27T04:19:16;3.20;3.20;1.00
20157;PMS5003;10239;56.820;24.416;2023-04-27T04:21:45;2.00;2.00;1.00
20157;PMS5003;10239;56.820;24.416;2023-04-27T04:24:13;4.20;4.00;1.00
20157;PMS5003;10239;56.820;24.416;2023-04-27T04:26:42;3.40;2.00;0.40
20157;PMS5003;10239;56.820;24.416;2023-04-27T04:29:10;6.20;4.00;1.00
20157;PMS5003;10239;56.820;24.416;2023-04-27T04:31:38;4.00;4.00;1.80
20157;PMS5003;10239;56.820;24.416;2023-04-27T04:34:07;8.20;5.00;2.00
20157;PMS5003;10239;56.820;24.416;2023-04-27T04:36:35;5.80;4.80;2.00
20157;PMS5003;10239;56.820;24.416;2023-04-27T04:39:03;5.80;2.40;1.00
20157;PMS5003;10239;56.820;24.416;2023-04-27T04:41:32;5.20;4.00;1.00
20157;PMS5003;10239;56.820;24.416;2023-04-27T04:44:00;4.60;4.00;1.40
20157;PMS5003;10239;56.820;24.416;2023-04-27T04:46:27;2.20;2.20;1.00
20157;PMS5003;10239;56.820;24.416;2023-04-27T04:48:56;4.60;2.40;1.00
20157;PMS5003;10239;56.820;24.416;2023-04-27T04:51:24;3.00;3.00;1.00
20157;PMS5003;10239;56.820;24.416;2023-04-27T04:53:52;5.40;3.40;1.00
20157;PMS5003;10239;56.820;24.416;2023-04-27T04:56:21;6.00;3.00;1.00
20157;PMS5003;10239;56.820;24.416;2023-04-27T04:58:49;5.20;1.80;1.00
20157;PMS5003;10239;56.820;24.416;2023-04-27T05:01:17;3.60;1.60;1.00
20157;PMS5003;10239;56.820;24.416;2023-04-27T05:03:46;1.40;1.40;1.00
20157;PMS5003;10239;56.820;24.416;2023-04-27T05:06:20;4.00;4.00;1.00
20157;PMS5003;10239;56.820;24.416;2023-04-27T05:08:47;6.60;4.40;1.80
20157;PMS5003;10239;56.820;24.416;2023-04-27T05:11:15;7.80;5.80;1.60
20157;PMS5003;10239;56.820;24.416;2023-04-27T05:13:43;4.60;3.20;1.00
20157;PMS5003;10239;56.820;24.416;2023-04-27T05:16:11;4.00;2.60;1.00
20157;PMS5003;10239;56.820;24.416;2023-04-27T05:18:39;6.20;4.20;1.00
20157;PMS5003;10239;56.820;24.416;2023-04-27T05:21:19;6.00;3.80;1.60
20157;PMS5003;10239;56.820;24.416;2023-04-27T05:23:48;3.00;2.00;1.00
20157;PMS5003;10239;56.820;24.416;2023-04-27T05:26:16;1.80;1.00;0.00
20157;PMS5003;10239;56.820;24.416;2023-04-27T05:28:44;3.80;2.40;1.00
20157;PMS5003;10239;56.820;24.416;2023-04-27T05:31:13;4.20;2.00;1.00
20157;PMS5003;10239;56.820;24.416;2023-04-27T05:33:40;3.20;3.20;1.00
20157;PMS5003;10239;56.820;24.416;2023-04-27T05:36:08;4.00;2.60;1.00
20157;PMS5003;10239;56.820;24.416;2023-04-27T05:38:36;3.00;3.00;1.60
20157;PMS5003;10239;56.820;24.416;2023-04-27T05:41:06;1.60;1.60;0.60
20157;PMS5003;10239;56.820;24.416;2023-04-27T05:43:34;3.20;3.20;0.80
20157;PMS5003;10239;56.820;24.416;2023-04-27T05:46:04;2.40;2.40;0.00
20157;PMS5003;10239;56.820;24.416;2023-04-27T05:48:31;2.40;2.40;1.00
20157;PMS5003;10239;56.820;24.416;2023-04-27T05:50:59;3.00;1.80;0.00
20157;PMS5003;10239;56.820;24.416;2023-04-27T05:53:28;4.80;3.40;1.00
20157;PMS5003;10239;56.820;24.416;2023-04-27T05:55:58;2.80;2.80;1.00
20157;PMS5003;10239;56.820;24.416;2023-04-27T05:58:33;3.20;2.20;1.00
20157;PMS5003;10239;56.820;24.416;2023-04-27T06:01:00;5.00;3.25;1.00
20157;PMS5003;10239;56.820;24.416;2023-04-27T06:03:29;3.75;2.00;0.75
20157;PMS5003;10239;56.820;24.416;2023-04-27T06:05:58;4.50;2.00;1.00
20157;PMS5003;10239;56.820;24.416;2023-04-27T06:08:27;1.75;1.00;0.50
20157;PMS5003;10239;56.820;24.416;2023-04-27T06:10:56;4.25;2.50;1.00
20157;PMS5003;10239;56.820;24.416;2023-04-27T06:13:24;2.75;2.75;1.00
20157;PMS5003;10239;56.820;24.416;2023-04-27T06:15:52;2.75;2.75;1.00
20157;PMS5003;10239;56.820;24.416;2023-04-27T06:18:19;1.50;1.50;1.00
20157;PMS5003;10239;56.820;24.416;2023-04-27T06:20:47;2.50;2.00;1.00
20157;PMS5003;10239;56.820;24.416;2023-04-27T06:23:15;4.00;2.00;1.00
20157;PMS5003;10239;56.820;24.416;2023-04-27T06:25:42;2.25;2.25;1.00
20157;PMS5003;10239;56.820;24.416;2023-04-27T06:28:10;4.00;2.50;1.00
20157;PMS5003;10239;56.820;24.416;2023-04-27T06:30:38;3.00;1.25;0.50
20157;PMS5003;10239;56.820;24.416;2023-04-27T06:33:05;2.25;1.25;1.00
20157;PMS5003;10239;56.820;24.416;2023-04-27T06:35:33;2.25;1.25;0.25
20157;PMS5003;10239;56.820;24.416;2023-04-27T06:38:00;0.50;0.50;0.25
20157;PMS5003;10239;56.820;24.416;2023-04-27T06:40:33;1.00;1.00;0.00
20157;PMS5003;10239;56.820;24.416;2023-04-27T06:43:02;1.75;1.75;1.00
20157;PMS5003;10239;56.820;24.416;2023-04-27T06:45:30;3.00;1.75;1.00
20157;PMS5003;10239;56.820;24.416;2023-04-27T06:47:58;1.25;1.25;1.00
20157;PMS5003;10239;56.820;24.416;2023-04-27T06:50:26;1.75;1.75;0.50
20157;PMS5003;10239;56.820;24.416;2023-04-27T06:52:55;2.25;2.00;1.00
20157;PMS5003;10239;56.820;24.416;2023-04-27T06:55:22;3.25;2.25;1.00
20157;PMS5003;10239;56.820;24.416;2023-04-27T06:57:50;1.00;1.00;0.75
20157;PMS5003;10239;56.820;24.416;2023-04-27T07:00:18;0.50;0.50;0.00
20157;PMS5003;10239;56.820;24.416;2023-04-27T07:02:45;0.25;0.25;0.00
20157;PMS5003;10239;56.820;24.416;2023-04-27T07:05:13;2.00;2.00;1.00
20157;PMS5003;10239;56.820;24.416;2023-04-27T07:07:41;1.00;1.00;0.00
20157;PMS5003;10239;56.820;24.416;2023-04-27T07:10:08;1.00;1.00;0.00
20157;PMS5003;10239;56.820;24.416;2023-04-27T07:12:37;0.50;0.50;0.00
20157;PMS5003;10239;56.820;24.416;2023-04-27T07:15:05;1.25;1.25;0.50
20157;PMS5003;10239;56.820;24.416;2023-04-27T07:17:33;1.00;1.00;0.50
20157;PMS5003;10239;56.820;24.416;2023-04-27T07:20:01;1.25;1.25;0.25
20157;PMS5003;10239;56.820;24.416;2023-04-27T07:22:32;1.00;1.00;0.00
20157;PMS5003;10239;56.820;24.416;2023-04-27T07:25:00;1.00;1.00;0.00
20157;PMS5003;10239;56.820;24.416;2023-04-27T07:27:27;1.50;0.50;0.00
20157;PMS5003;10239;56.820;24.416;2023-04-27T07:29:55;1.00;1.00;0.00
20157;PMS5003;10239;56.820;24.416;2023-04-27T07:32:23;1.00;1.00;1.00
20157;PMS5003;10239;56.820;24.416;2023-04-27T07:34:51;0.00;0.00;0.00
20157;PMS5003;10239;56.820;24.416;2023-04-27T07:37:21;1.60;1.60;0.20
20157;PMS5003;10239;56.820;24.416;2023-04-27T07:39:49;1.00;1.00;0.00
20157;PMS5003;10239;56.820;24.416;2023-04-27T07:42:20;1.00;1.00;0.00
20157;PMS5003;10239;56.820;24.416;2023-04-27T07:44:50;0.40;0.40;0.00
20157;PMS5003;10239;56.820;24.416;2023-04-27T07:47:18;0.00;0.00;0.00
20157;PMS5003;10239;56.820;24.416;2023-04-27T07:49:46;0.00;0.00;0.00
20157;PMS5003;10239;56.820;24.416;2023-04-27T07:52:14;0.00;0.00;0.00
20157;PMS5003;10239;56.820;24.416;2023-04-27T07:54:42;0.00;0.00;0.00
20157;PMS5003;10239;56.820;24.416;2023-04-27T07:57:10;0.00;0.00;0.00
20157;PMS5003;10239;56.820;24.416;2023-04-27T07:59:37;1.00;1.00;0.00
20157;PMS5003;10239;56.820;24.416;2023-04-27T08:02:05;0.00;0.00;0.00
20157;PMS5003;10239;56.820;24.416;2023-04-27T08:04:46;0.00;0.00;0.00
20157;PMS5003;10239;56.820;24.416;2023-04-27T08:07:15;0.20;0.20;0.00
20157;PMS5003;10239;56.820;24.416;2023-04-27T08:09:43;0.00;0.00;0.00
20157;PMS5003;10239;56.820;24.416;2023-04-27T08:12:11;0.80;0.00;0.00
20157;PMS5003;10239;56.820;24.416;2023-04-27T08:14:39;0.00;0.00;0.00
20157;PMS5003;10239;56.820;24.416;2023-04-27T08:17:07;0.20;0.20;0.00
20157;PMS5003;10239;56.820;24.416;2023-04-27T08:19:34;0.00;0.00;0.00
20157;PMS5003;10239;56.820;24.416;2023-04-27T08:22:02;0.00;0.00;0.00
20157;PMS5003;10239;56.820;24.416;2023-04-27T08:24:30;0.00;0.00;0.00
20157;PMS5003;10239;56.820;24.416;2023-04-27T08:26:58;0.00;0.00;0.00
20157;PMS5003;10239;56.820;24.416;2023-04-27T08:29:26;0.50;0.50;0.00
20157;PMS5003;10239;56.820;24.416;2023-04-27T08:31:56;0.00;0.00;0.00
20157;PMS5003;10239;56.820;24.416;2023-04-27T08:34:26;2.00;0.75;0.00
20157;PMS5003;10239;56.820;24.416;2023-04-27T08:36:54;2.75;1.00;0.00
20157;PMS5003;10239;56.820;24.416;2023-04-27T08:39:23;1.50;0.75;0.00
20157;PMS5003;10239;56.820;24.416;2023-04-27T08:41:51;0.00;0.00;0.00
20157;PMS5003;10239;56.820;24.416;2023-04-27T08:44:18;1.75;0.75;0.00
20157;PMS5003;10239;56.820;24.416;2023-04-27T08:46:46;0.75;0.75;0.00
20157;PMS5003;10239;56.820;24.416;2023-04-27T08:49:14;0.75;0.75;0.00
20157;PMS5003;10239;56.820;24.416;2023-04-27T08:51:43;0.00;0.00;0.00
20157;PMS5003;10239;56.820;24.416;2023-04-27T08:54:10;0.25;0.25;0.00
20157;PMS5003;10239;56.820;24.416;2023-04-27T08:56:38;0.75;0.75;0.00
20157;PMS5003;10239;56.820;24.416;2023-04-27T08:59:11;0.00;0.00;0.00
20157;PMS5003;10239;56.820;24.416;2023-04-27T09:01:44;0.75;0.75;0.00
20157;PMS5003;10239;56.820;24.416;2023-04-27T09:04:15;0.00;0.00;0.00
20157;PMS5003;10239;56.820;24.416;2023-04-27T09:06:44;0.50;0.50;0.00
20157;PMS5003;10239;56.820;24.416;2023-04-27T09:09:20;0.00;0.00;0.00
20157;PMS5003;10239;56.820;24.416;2023-04-27T09:11:51;1.50;0.00;0.00
20157;PMS5003;10239;56.820;24.416;2023-04-27T09:14:20;0.00;0.00;0.00
20157;PMS5003;10239;56.820;24.416;2023-04-27T09:16:55;0.00;0.00;0.00
20157;PMS5003;10239;56.820;24.416;2023-04-27T09:19:25;2.00;0.75;0.00
20157;PMS5003;10239;56.820;24.416;2023-04-27T09:22:07;0.25;0.25;0.00
20157;PMS5003;10239;56.820;24.416;2023-04-27T09:24:53;0.75;0.75;0.00
20157;PMS5003;10239;56.820;24.416;2023-04-27T09:27:21;0.00;0.00;0.00
20157;PMS5003;10239;56.820;24.416;2023-04-27T09:29:49;0.50;0.50;0.00
20157;PMS5003;10239;56.820;24.416;2023-04-27T09:32:16;0.00;0.00;0.00
20157;PMS5003;10239;56.820;24.416;2023-04-27T09:34:46;0.00;0.00;0.00
20157;PMS5003;10239;56.820;24.416;2023-04-27T09:37:14;1.00;0.00;0.00
20157;PMS5003;10239;56.820;24.416;2023-04-27T09:39:42;2.00;0.25;0.00
20157;PMS5003;10239;56.820;24.416;2023-04-27T09:42:10;0.50;0.50;0.00
20157;PMS5003;10239;56.820;24.416;2023-04-27T09:44:38;1.00;1.00;0.00
20157;PMS5003;10239;56.820;24.416;2023-04-27T09:47:05;0.75;0.75;0.75
20157;PMS5003;10239;56.820;24.416;2023-04-27T09:49:36;2.75;1.75;0.00
20157;PMS5003;10239;56.820;24.416;2023-04-27T09:52:03;0.00;0.00;0.00
20157;PMS5003;10239;56.820;24.416;2023-04-27T09:54:32;0.75;0.75;0.00
20157;PMS5003;10239;56.820;24.416;2023-04-27T10:00:05;1.00;1.00;0.00
20157;PMS5003;10239;56.820;24.416;2023-04-27T10:03:14;0.25;0.25;0.00
20157;PMS5003;10239;56.820;24.416;2023-04-27T10:06:14;1.00;1.00;0.00
20157;PMS5003;10239;56.820;24.416;2023-04-27T10:08:57;0.25;0.25;0.00
20157;PMS5003;10239;56.820;24.416;2023-04-27T10:11:41;0.25;0.25;0.00
20157;PMS5003;10239;56.820;24.416;2023-04-27T10:14:15;0.25;0.25;0.00
20157;PMS5003;10239;56.820;24.416;2023-04-27T10:16:51;0.50;0.50;0.00
20157;PMS5003;10239;56.820;24.416;2023-04-27T10:19:23;0.00;0.00;0.00
20157;PMS5003;10239;56.820;24.416;2023-04-27T10:21:52;0.00;0.00;0.00
20157;PMS5003;10239;56.820;24.416;2023-04-27T10:24:38;0.75;0.75;0.00
20157;PMS5003;10239;56.820;24.416;2023-04-27T10:27:08;1.00;1.00;0.00
20157;PMS5003;10239;56.820;24.416;2023-04-27T10:29:41;1.00;1.00;0.00
20157;PMS5003;10239;56.820;24.416;2023-04-27T10:32:21;1.00;1.00;1.00
20157;PMS5003;10239;56.820;24.416;2023-04-27T10:35:00;1.00;1.00;0.00
20157;PMS5003;10239;56.820;24.416;2023-04-27T10:37:38;1.00;1.00;0.00
20157;PMS5003;10239;56.820;24.416;2023-04-27T10:40:08;0.00;0.00;0.00
20157;PMS5003;10239;56.820;24.416;2023-04-27T10:42:40;0.25;0.25;0.00
20157;PMS5003;10239;56.820;24.416;2023-04-27T10:45:08;1.00;1.00;0.00
20157;PMS5003;10239;56.820;24.416;2023-04-27T10:47:39;0.25;0.25;0.00
20157;PMS5003;10239;56.820;24.416;2023-04-27T10:50:09;0.75;0.75;0.00
20157;PMS5003;10239;56.820;24.416;2023-04-27T10:52:40;0.00;0.00;0.00
20157;PMS5003;10239;56.820;24.416;2023-04-27T10:55:12;1.00;1.00;0.00
20157;PMS5003;10239;56.820;24.416;2023-04-27T10:57:47;1.00;1.00;0.00
20157;PMS5003;10239;56.820;24.416;2023-04-27T11:00:29;1.00;1.00;0.25
20157;PMS5003;10239;56.820;24.416;2023-04-27T11:03:16;1.00;1.00;0.00
20157;PMS5003;10239;56.820;24.416;2023-04-27T11:05:48;1.00;1.00;0.00
20157;PMS5003;10239;56.820;24.416;2023-04-27T11:08:26;0.25;0.25;0.00
20157;PMS5003;10239;56.820;24.416;2023-04-27T11:10:56;0.50;0.50;0.00
20157;PMS5003;10239;56.820;24.416;2023-04-27T11:13:24;0.75;0.00;0.00
20157;PMS5003;10239;56.820;24.416;2023-04-27T11:15:54;0.25;0.25;0.00
20157;PMS5003;10239;56.820;24.416;2023-04-27T11:18:24;0.75;0.00;0.00
20157;PMS5003;10239;56.820;24.416;2023-04-27T11:21:08;1.00;0.00;0.00
20157;PMS5003;10239;56.820;24.416;2023-04-27T11:23:37;2.00;0.00;0.00
20157;PMS5003;10239;56.820;24.416;2023-04-27T11:26:12;0.00;0.00;0.00
20157;PMS5003;10239;56.820;24.416;2023-04-27T11:28:44;0.00;0.00;0.00
20157;PMS5003;10239;56.820;24.416;2023-04-27T11:31:37;0.00;0.00;0.00
20157;PMS5003;10239;56.820;24.416;2023-04-27T11:34:06;1.00;0.00;0.00
20157;PMS5003;10239;56.820;24.416;2023-04-27T11:36:34;1.00;0.00;0.00
20157;PMS5003;10239;56.820;24.416;2023-04-27T11:39:02;0.00;0.00;0.00
20157;PMS5003;10239;56.820;24.416;2023-04-27T11:41:35;1.00;1.00;0.00
20157;PMS5003;10239;56.820;24.416;2023-04-27T11:44:04;0.75;0.75;0.00
20157;PMS5003;10239;56.820;24.416;2023-04-27T11:46:36;0.00;0.00;0.00
20157;PMS5003;10239;56.820;24.416;2023-04-27T11:49:05;0.00;0.00;0.00
20157;PMS5003;10239;56.820;24.416;2023-04-27T11:51:34;1.00;0.50;0.00
20157;PMS5003;10239;56.820;24.416;2023-04-27T11:54:03;0.00;0.00;0.00
20157;PMS5003;10239;56.820;24.416;2023-04-27T11:56:33;0.75;0.75;0.00
20157;PMS5003;10239;56.820;24.416;2023-04-27T11:59:05;1.00;1.00;0.00
20157;PMS5003;10239;56.820;24.416;2023-04-27T12:01:47;0.00;0.00;0.00
20157;PMS5003;10239;56.820;24.416;2023-04-27T12:04:16;2.00;1.00;0.00
20157;PMS5003;10239;56.820;24.416;2023-04-27T12:06:44;0.00;0.00;0.00
20157;PMS5003;10239;56.820;24.416;2023-04-27T12:09:12;0.00;0.00;0.00
20157;PMS5003;10239;56.820;24.416;2023-04-27T12:11:39;1.00;1.00;0.50
20157;PMS5003;10239;56.820;24.416;2023-04-27T12:14:07;0.75;0.75;0.00
20157;PMS5003;10239;56.820;24.416;2023-04-27T12:16:34;0.00;0.00;0.00
20157;PMS5003;10239;56.820;24.416;2023-04-27T12:19:02;2.00;1.00;0.00
20157;PMS5003;10239;56.820;24.416;2023-04-27T12:21:30;0.00;0.00;0.00
20157;PMS5003;10239;56.820;24.416;2023-04-27T12:23:57;0.00;0.00;0.00
20157;PMS5003;10239;56.820;24.416;2023-04-27T12:26:25;0.00;0.00;0.00
20157;PMS5003;10239;56.820;24.416;2023-04-27T12:28:53;0.75;0.75;0.00
20157;PMS5003;10239;56.820;24.416;2023-04-27T12:31:20;0.00;0.00;0.00
20157;PMS5003;10239;56.820;24.416;2023-04-27T12:33:53;0.00;0.00;0.00
20157;PMS5003;10239;56.820;24.416;2023-04-27T12:36:21;0.25;0.25;0.00
20157;PMS5003;10239;56.820;24.416;2023-04-27T12:38:48;0.00;0.00;0.00
20157;PMS5003;10239;56.820;24.416;2023-04-27T12:41:17;0.00;0.00;0.00
20157;PMS5003;10239;56.820;24.416;2023-04-27T12:43:45;0.00;0.00;0.00
20157;PMS5003;10239;56.820;24.416;2023-04-27T12:46:14;0.00;0.00;0.00
20157;PMS5003;10239;56.820;24.416;2023-04-27T12:48:42;0.00;0.00;0.00
20157;PMS5003;10239;56.820;24.416;2023-04-27T12:51:10;0.50;0.00;0.00
20157;PMS5003;10239;56.820;24.416;2023-04-27T12:53:41;1.00;1.00;0.00
20157;PMS5003;10239;56.820;24.416;2023-04-27T12:56:09;0.00;0.00;0.00
20157;PMS5003;10239;56.820;24.416;2023-04-27T12:58:37;3.00;1.00;0.00
20157;PMS5003;10239;56.820;24.416;2023-04-27T13:01:05;1.25;1.25;0.75
20157;PMS5003;10239;56.820;24.416;2023-04-27T13:03:41;1.00;1.00;0.00
20157;PMS5003;10239;56.820;24.416;2023-04-27T13:06:09;0.25;0.25;0.00
20157;PMS5003;10239;56.820;24.416;2023-04-27T13:08:37;1.75;1.75;0.00
20157;PMS5003;10239;56.820;24.416;2023-04-27T13:11:06;0.40;0.40;0.00
20157;PMS5003;10239;56.820;24.416;2023-04-27T13:13:34;1.00;1.00;0.00
20157;PMS5003;10239;56.820;24.416;2023-04-27T13:16:02;2.00;0.60;0.00
20157;PMS5003;10239;56.820;24.416;2023-04-27T13:18:30;0.00;0.00;0.00
20157;PMS5003;10239;56.820;24.416;2023-04-27T13:21:01;3.60;0.40;0.00
20157;PMS5003;10239;56.820;24.416;2023-04-27T13:23:31;1.00;1.00;0.00
20157;PMS5003;10239;56.820;24.416;2023-04-27T13:25:58;2.00;2.00;1.00
20157;PMS5003;10239;56.820;24.416;2023-04-27T13:28:27;1.00;1.00;0.00
20157;PMS5003;10239;56.820;24.416;2023-04-27T13:30:54;0.00;0.00;0.00
20157;PMS5003;10239;56.820;24.416;2023-04-27T13:33:25;1.00;1.00;0.00
20157;PMS5003;10239;56.820;24.416;2023-04-27T13:35:53;0.75;0.75;0.00
20157;PMS5003;10239;56.820;24.416;2023-04-27T13:38:20;2.00;0.25;0.00
20157;PMS5003;10239;56.820;24.416;2023-04-27T13:40:48;1.00;1.00;0.00
20157;PMS5003;10239;56.820;24.416;2023-04-27T13:43:15;2.00;2.00;0.80
20157;PMS5003;10239;56.820;24.416;2023-04-27T13:45:43;6.00;5.40;2.40
20157;PMS5003;10239;56.820;24.416;2023-04-27T13:48:11;2.60;1.20;1.00
20157;PMS5003;10239;56.820;24.416;2023-04-27T13:50:39;1.00;1.00;0.00
20157;PMS5003;10239;56.820;24.416;2023-04-27T13:53:06;1.00;1.00;0.00
20157;PMS5003;10239;56.820;24.416;2023-04-27T13:55:35;0.00;0.00;0.00
20157;PMS5003;10239;56.820;24.416;2023-04-27T13:58:03;1.00;1.00;0.00
20157;PMS5003;10239;56.820;24.416;2023-04-27T14:00:31;1.00;1.00;1.00
20157;PMS5003;10239;56.820;24.416;2023-04-27T14:03:03;0.00;0.00;0.00
20157;PMS5003;10239;56.820;24.416;2023-04-27T14:05:31;0.60;0.60;0.00
20157;PMS5003;10239;56.820;24.416;2023-04-27T14:07:59;0.25;0.25;0.00
20157;PMS5003;10239;56.820;24.416;2023-04-27T14:10:26;0.00;0.00;0.00
20157;PMS5003;10239;56.820;24.416;2023-04-27T14:12:55;1.00;1.00;0.20
20157;PMS5003;10239;56.820;24.416;2023-04-27T14:15:22;0.00;0.00;0.00
20157;PMS5003;10239;56.820;24.416;2023-04-27T14:17:50;1.75;1.75;1.00
20157;PMS5003;10239;56.820;24.416;2023-04-27T14:20:18;0.00;0.00;0.00
20157;PMS5003;10239;56.820;24.416;2023-04-27T14:22:46;2.50;1.25;0.00